Ye Chi — VRFV6 — position and weather

sailwx.info

Track history (hours):
 
Tides and Currents Weather Stations Pressure Air Temp Water Temp Dewpoint Dewpoint Depression Visibility Wind Speed Wind Dir Waves Ship Positions

Ye Chi

Last reported at 2015-Apr-15 19:20 UTC. Time now 2015-Apr-28 00:38 UTC.
Position N 29°43' E 123°55'.
Warning: this ship's position is 12 days out of date.

Length 187 m; draft 10.8 m.

Type: Ship (hazmat cat D). MMSI: 477621300.

Date/timePositionNaut miles runAvg speedWind from/ knotsBaromVisibWave heightAir tempDewpointWater temp
2015-Apr-15 19:20N 29°43' E 123°55'1013.1
2015-Apr-15 18:33N 29°53' E 123°58'1513.4
2015-Apr-15 17:27N 30°08' E 123°60'1213.8
2015-Apr-15 16:33N 30°20' E 124°00'4412.7
2015-Apr-15 13:05N 31°04' E 124°00'911.6
2015-Apr-15 12:18N 31°13' E 124°00'3211.7
2015-Apr-15 09:33N 31°45' E 123°59'  
2015-Apr-10 15:12N 35°13' E 125°24'6 9.2
2015-Apr-10 14:33N 35°07' E 125°27'3110.3
2015-Apr-10 11:29N 34°37' E 125°38'2412.1
2015-Apr-10 09:28N 34°13' E 125°40'  
Track history (hours):
 
Tides and Currents Weather Stations Pressure Air Temp Water Temp Dewpoint Dewpoint Depression Visibility Wind Speed Wind Dir Waves Ship Positions

Ye Chi

Last reported at 2015-Apr-15 19:20 UTC. Time now 2015-Apr-28 00:38 UTC.
Position N 29°43' E 123°55'.
Warning: this ship's position is 12 days out of date.

Length 187 m; draft 10.8 m.

Type: Ship (hazmat cat D). MMSI: 477621300.

Date/timePositionNaut miles runAvg speedWind from/ knotsBaromVisibWave heightAir tempDewpointWater temp
2015-Apr-15 19:20N 29°43' E 123°55'1013.1
2015-Apr-15 18:33N 29°53' E 123°58'1513.4
2015-Apr-15 17:27N 30°08' E 123°60'1213.8
2015-Apr-15 16:33N 30°20' E 124°00'4412.7
2015-Apr-15 13:05N 31°04' E 124°00'911.6
2015-Apr-15 12:18N 31°13' E 124°00'3211.7
2015-Apr-15 09:33N 31°45' E 123°59'  
2015-Apr-10 15:12N 35°13' E 125°24'6 9.2
2015-Apr-10 14:33N 35°07' E 125°27'3110.3
2015-Apr-10 11:29N 34°37' E 125°38'2412.1
2015-Apr-10 09:28N 34°13' E 125°40'  

Dump ship's entire track history